sensor_id;sensor_type;location;lat;lon;timestamp;P1;durP1;ratioP1;P2;durP2;ratioP2
77544;SDS011;66672;50.328;7.610;2023-07-31T00:01:13;6.10;;;1.67;;
77544;SDS011;66672;50.328;7.610;2023-07-31T00:03:38;6.22;;;1.80;;
77544;SDS011;66672;50.328;7.610;2023-07-31T00:06:03;3.63;;;1.50;;
77544;SDS011;66672;50.328;7.610;2023-07-31T00:08:29;5.97;;;2.35;;
77544;SDS011;66672;50.328;7.610;2023-07-31T00:10:54;5.20;;;2.00;;
77544;SDS011;66672;50.328;7.610;2023-07-31T00:13:19;7.15;;;2.13;;
77544;SDS011;66672;50.328;7.610;2023-07-31T00:15:44;5.35;;;1.73;;
77544;SDS011;66672;50.328;7.610;2023-07-31T00:18:09;5.43;;;1.70;;
77544;SDS011;66672;50.328;7.610;2023-07-31T00:20:35;5.30;;;1.60;;
77544;SDS011;66672;50.328;7.610;2023-07-31T00:23:00;4.65;;;1.25;;
77544;SDS011;66672;50.328;7.610;2023-07-31T00:25:25;4.22;;;1.70;;
77544;SDS011;66672;50.328;7.610;2023-07-31T00:27:50;7.18;;;2.13;;
77544;SDS011;66672;50.328;7.610;2023-07-31T00:30:15;7.22;;;1.80;;
77544;SDS011;66672;50.328;7.610;2023-07-31T00:32:41;7.60;;;2.08;;
77544;SDS011;66672;50.328;7.610;2023-07-31T00:35:06;6.10;;;1.92;;
77544;SDS011;66672;50.328;7.610;2023-07-31T00:37:31;6.10;;;1.80;;
77544;SDS011;66672;50.328;7.610;2023-07-31T00:39:56;5.57;;;1.88;;
77544;SDS011;66672;50.328;7.610;2023-07-31T00:42:22;7.13;;;2.08;;
77544;SDS011;66672;50.328;7.610;2023-07-31T00:44:47;6.75;;;1.98;;
77544;SDS011;66672;50.328;7.610;2023-07-31T00:47:12;5.28;;;1.50;;
77544;SDS011;66672;50.328;7.610;2023-07-31T00:49:37;4.03;;;1.83;;
77544;SDS011;66672;50.328;7.610;2023-07-31T00:52:02;4.38;;;2.00;;
77544;SDS011;66672;50.328;7.610;2023-07-31T00:54:28;5.07;;;2.05;;
77544;SDS011;66672;50.328;7.610;2023-07-31T00:56:53;4.38;;;1.90;;
77544;SDS011;66672;50.328;7.610;2023-07-31T00:59:19;4.53;;;1.85;;
77544;SDS011;66672;50.328;7.610;2023-07-31T01:01:44;9.82;;;2.00;;
77544;SDS011;66672;50.328;7.610;2023-07-31T01:04:10;6.53;;;2.00;;
77544;SDS011;66672;50.328;7.610;2023-07-31T01:06:36;4.85;;;1.55;;
77544;SDS011;66672;50.328;7.610;2023-07-31T01:09:04;4.95;;;1.88;;
77544;SDS011;66672;50.328;7.610;2023-07-31T01:11:33;6.15;;;2.03;;
77544;SDS011;66672;50.328;7.610;2023-07-31T01:13:59;7.25;;;1.98;;
77544;SDS011;66672;50.328;7.610;2023-07-31T01:16:25;6.10;;;2.00;;
77544;SDS011;66672;50.328;7.610;2023-07-31T01:18:50;6.03;;;2.03;;
77544;SDS011;66672;50.328;7.610;2023-07-31T01:24:06;4.88;;;1.90;;
77544;SDS011;66672;50.328;7.610;2023-07-31T01:26:34;5.10;;;1.63;;
77544;SDS011;66672;50.328;7.610;2023-07-31T01:29:03;7.13;;;2.00;;
77544;SDS011;66672;50.328;7.610;2023-07-31T01:31:31;4.32;;;2.05;;
77544;SDS011;66672;50.328;7.610;2023-07-31T01:33:58;5.22;;;2.00;;
77544;SDS011;66672;50.328;7.610;2023-07-31T01:36:24;6.53;;;2.20;;
77544;SDS011;66672;50.328;7.610;2023-07-31T01:38:50;6.93;;;2.28;;
77544;SDS011;66672;50.328;7.610;2023-07-31T01:41:18;5.65;;;1.80;;
77544;SDS011;66672;50.328;7.610;2023-07-31T01:43:44;4.50;;;1.77;;
77544;SDS011;66672;50.328;7.610;2023-07-31T01:46:09;3.25;;;1.58;;
77544;SDS011;66672;50.328;7.610;2023-07-31T01:48:34;7.70;;;2.08;;
77544;SDS011;66672;50.328;7.610;2023-07-31T01:51:01;6.50;;;1.85;;
77544;SDS011;66672;50.328;7.610;2023-07-31T01:53:27;4.93;;;1.85;;
77544;SDS011;66672;50.328;7.610;2023-07-31T01:55:52;5.32;;;1.70;;
77544;SDS011;66672;50.328;7.610;2023-07-31T01:58:17;3.95;;;1.92;;
77544;SDS011;66672;50.328;7.610;2023-07-31T02:00:43;4.70;;;1.60;;
77544;SDS011;66672;50.328;7.610;2023-07-31T02:03:08;5.93;;;2.40;;
77544;SDS011;66672;50.328;7.610;2023-07-31T02:05:33;4.35;;;1.80;;
77544;SDS011;66672;50.328;7.610;2023-07-31T02:07:58;4.55;;;1.95;;
77544;SDS011;66672;50.328;7.610;2023-07-31T02:10:23;5.07;;;2.13;;
77544;SDS011;66672;50.328;7.610;2023-07-31T02:12:48;7.13;;;2.20;;
77544;SDS011;66672;50.328;7.610;2023-07-31T02:15:14;6.00;;;2.58;;
77544;SDS011;66672;50.328;7.610;2023-07-31T02:17:39;5.60;;;2.10;;
77544;SDS011;66672;50.328;7.610;2023-07-31T02:20:04;5.32;;;2.00;;
77544;SDS011;66672;50.328;7.610;2023-07-31T02:22:30;5.88;;;1.90;;
77544;SDS011;66672;50.328;7.610;2023-07-31T02:24:55;5.60;;;2.08;;
77544;SDS011;66672;50.328;7.610;2023-07-31T02:27:20;4.20;;;1.80;;
77544;SDS011;66672;50.328;7.610;2023-07-31T02:29:49;4.55;;;1.90;;
77544;SDS011;66672;50.328;7.610;2023-07-31T02:32:14;3.47;;;1.63;;
77544;SDS011;66672;50.328;7.610;2023-07-31T02:34:39;4.88;;;2.00;;
77544;SDS011;66672;50.328;7.610;2023-07-31T02:37:04;6.25;;;1.95;;
77544;SDS011;66672;50.328;7.610;2023-07-31T02:39:30;4.10;;;1.88;;
77544;SDS011;66672;50.328;7.610;2023-07-31T02:41:55;5.80;;;2.30;;
77544;SDS011;66672;50.328;7.610;2023-07-31T02:44:20;6.05;;;2.03;;
77544;SDS011;66672;50.328;7.610;2023-07-31T02:46:46;4.50;;;1.77;;
77544;SDS011;66672;50.328;7.610;2023-07-31T02:49:11;5.32;;;2.17;;
77544;SDS011;66672;50.328;7.610;2023-07-31T02:51:36;4.00;;;1.90;;
77544;SDS011;66672;50.328;7.610;2023-07-31T02:54:01;6.20;;;2.13;;
77544;SDS011;66672;50.328;7.610;2023-07-31T02:56:26;6.78;;;2.10;;
77544;SDS011;66672;50.328;7.610;2023-07-31T02:58:51;3.97;;;1.73;;
77544;SDS011;66672;50.328;7.610;2023-07-31T03:01:17;4.70;;;1.90;;
77544;SDS011;66672;50.328;7.610;2023-07-31T03:03:42;5.03;;;1.80;;
77544;SDS011;66672;50.328;7.610;2023-07-31T03:06:07;5.95;;;2.00;;
77544;SDS011;66672;50.328;7.610;2023-07-31T03:08:32;4.78;;;1.90;;
77544;SDS011;66672;50.328;7.610;2023-07-31T03:10:57;3.88;;;1.65;;
77544;SDS011;66672;50.328;7.610;2023-07-31T03:13:22;4.65;;;1.52;;
77544;SDS011;66672;50.328;7.610;2023-07-31T03:15:48;4.90;;;1.83;;
77544;SDS011;66672;50.328;7.610;2023-07-31T03:18:13;4.15;;;1.60;;
77544;SDS011;66672;50.328;7.610;2023-07-31T03:20:41;3.85;;;1.70;;
77544;SDS011;66672;50.328;7.610;2023-07-31T03:23:06;4.85;;;1.90;;
77544;SDS011;66672;50.328;7.610;2023-07-31T03:25:32;6.07;;;2.03;;
77544;SDS011;66672;50.328;7.610;2023-07-31T03:27:57;4.40;;;1.95;;
77544;SDS011;66672;50.328;7.610;2023-07-31T03:30:22;6.00;;;1.90;;
77544;SDS011;66672;50.328;7.610;2023-07-31T03:32:47;4.40;;;1.83;;
77544;SDS011;66672;50.328;7.610;2023-07-31T03:35:12;5.20;;;1.92;;
77544;SDS011;66672;50.328;7.610;2023-07-31T03:37:37;4.88;;;1.83;;
77544;SDS011;66672;50.328;7.610;2023-07-31T03:40:03;3.75;;;1.77;;
77544;SDS011;66672;50.328;7.610;2023-07-31T03:42:29;4.78;;;1.85;;
77544;SDS011;66672;50.328;7.610;2023-07-31T03:44:54;4.03;;;1.90;;
77544;SDS011;66672;50.328;7.610;2023-07-31T03:47:19;3.57;;;1.67;;
77544;SDS011;66672;50.328;7.610;2023-07-31T03:49:44;4.75;;;1.85;;
77544;SDS011;66672;50.328;7.610;2023-07-31T03:52:10;4.47;;;1.70;;
77544;SDS011;66672;50.328;7.610;2023-07-31T03:54:35;8.52;;;1.85;;
77544;SDS011;66672;50.328;7.610;2023-07-31T03:57:00;6.47;;;2.00;;
77544;SDS011;66672;50.328;7.610;2023-07-31T03:59:25;4.93;;;1.88;;
77544;SDS011;66672;50.328;7.610;2023-07-31T04:01:50;4.63;;;2.00;;
77544;SDS011;66672;50.328;7.610;2023-07-31T04:04:16;5.13;;;2.08;;
77544;SDS011;66672;50.328;7.610;2023-07-31T04:06:41;6.50;;;2.20;;
77544;SDS011;66672;50.328;7.610;2023-07-31T04:09:06;4.93;;;1.80;;
77544;SDS011;66672;50.328;7.610;2023-07-31T04:11:31;11.48;;;1.90;;
77544;SDS011;66672;50.328;7.610;2023-07-31T04:13:56;4.80;;;2.42;;
77544;SDS011;66672;50.328;7.610;2023-07-31T04:16:22;4.10;;;1.67;;
77544;SDS011;66672;50.328;7.610;2023-07-31T04:18:47;3.88;;;1.50;;
77544;SDS011;66672;50.328;7.610;2023-07-31T04:21:12;5.43;;;2.03;;
77544;SDS011;66672;50.328;7.610;2023-07-31T04:23:37;5.87;;;2.07;;
77544;SDS011;66672;50.328;7.610;2023-07-31T04:26:03;6.85;;;2.60;;
77544;SDS011;66672;50.328;7.610;2023-07-31T04:28:28;4.18;;;1.85;;
77544;SDS011;66672;50.328;7.610;2023-07-31T04:30:53;5.43;;;1.73;;
77544;SDS011;66672;50.328;7.610;2023-07-31T04:33:18;4.03;;;1.80;;
77544;SDS011;66672;50.328;7.610;2023-07-31T04:35:51;4.78;;;1.83;;
77544;SDS011;66672;50.328;7.610;2023-07-31T04:38:17;5.03;;;1.85;;
77544;SDS011;66672;50.328;7.610;2023-07-31T04:40:42;7.38;;;2.35;;
77544;SDS011;66672;50.328;7.610;2023-07-31T04:43:07;4.85;;;1.75;;
77544;SDS011;66672;50.328;7.610;2023-07-31T04:45:33;5.93;;;1.67;;
77544;SDS011;66672;50.328;7.610;2023-07-31T04:47:58;4.95;;;1.88;;
77544;SDS011;66672;50.328;7.610;2023-07-31T04:50:23;7.78;;;2.00;;
77544;SDS011;66672;50.328;7.610;2023-07-31T04:52:48;6.15;;;1.55;;
77544;SDS011;66672;50.328;7.610;2023-07-31T04:55:13;3.83;;;1.90;;
77544;SDS011;66672;50.328;7.610;2023-07-31T04:57:38;5.07;;;1.90;;
77544;SDS011;66672;50.328;7.610;2023-07-31T05:00:04;4.60;;;2.03;;
77544;SDS011;66672;50.328;7.610;2023-07-31T05:02:29;6.07;;;1.85;;
77544;SDS011;66672;50.328;7.610;2023-07-31T05:04:54;4.68;;;1.67;;
77544;SDS011;66672;50.328;7.610;2023-07-31T05:07:19;4.45;;;1.67;;
77544;SDS011;66672;50.328;7.610;2023-07-31T05:09:45;5.25;;;1.90;;
77544;SDS011;66672;50.328;7.610;2023-07-31T05:12:10;7.45;;;1.98;;
77544;SDS011;66672;50.328;7.610;2023-07-31T05:14:35;5.40;;;1.90;;
77544;SDS011;66672;50.328;7.610;2023-07-31T05:17:00;4.63;;;1.55;;
77544;SDS011;66672;50.328;7.610;2023-07-31T05:19:25;6.13;;;2.17;;
77544;SDS011;66672;50.328;7.610;2023-07-31T05:21:50;8.20;;;2.58;;
77544;SDS011;66672;50.328;7.610;2023-07-31T05:24:16;6.75;;;2.28;;
77544;SDS011;66672;50.328;7.610;2023-07-31T05:26:41;5.60;;;1.80;;
77544;SDS011;66672;50.328;7.610;2023-07-31T05:29:06;4.88;;;2.13;;
77544;SDS011;66672;50.328;7.610;2023-07-31T05:31:31;5.25;;;1.70;;
77544;SDS011;66672;50.328;7.610;2023-07-31T05:33:57;6.13;;;2.10;;
77544;SDS011;66672;50.328;7.610;2023-07-31T05:36:22;5.38;;;2.00;;
77544;SDS011;66672;50.328;7.610;2023-07-31T05:38:47;6.25;;;2.13;;
77544;SDS011;66672;50.328;7.610;2023-07-31T05:41:13;6.35;;;2.53;;
77544;SDS011;66672;50.328;7.610;2023-07-31T05:43:38;7.45;;;2.40;;
77544;SDS011;66672;50.328;7.610;2023-07-31T05:46:03;4.68;;;1.88;;
77544;SDS011;66672;50.328;7.610;2023-07-31T05:48:28;7.05;;;1.77;;
77544;SDS011;66672;50.328;7.610;2023-07-31T05:50:54;6.72;;;2.05;;
77544;SDS011;66672;50.328;7.610;2023-07-31T05:53:19;4.35;;;1.67;;
77544;SDS011;66672;50.328;7.610;2023-07-31T05:55:44;4.85;;;2.08;;
77544;SDS011;66672;50.328;7.610;2023-07-31T05:58:09;6.22;;;2.40;;
77544;SDS011;66672;50.328;7.610;2023-07-31T06:00:34;4.93;;;2.33;;
77544;SDS011;66672;50.328;7.610;2023-07-31T06:02:59;5.72;;;2.30;;
77544;SDS011;66672;50.328;7.610;2023-07-31T06:05:25;6.45;;;1.88;;
77544;SDS011;66672;50.328;7.610;2023-07-31T06:07:51;5.90;;;2.42;;
77544;SDS011;66672;50.328;7.610;2023-07-31T06:10:16;8.63;;;2.38;;
77544;SDS011;66672;50.328;7.610;2023-07-31T06:12:41;7.05;;;2.08;;
77544;SDS011;66672;50.328;7.610;2023-07-31T06:15:06;8.32;;;2.60;;
77544;SDS011;66672;50.328;7.610;2023-07-31T06:17:32;5.72;;;2.30;;
77544;SDS011;66672;50.328;7.610;2023-07-31T06:19:57;7.63;;;2.78;;
77544;SDS011;66672;50.328;7.610;2023-07-31T06:22:22;6.95;;;2.05;;
77544;SDS011;66672;50.328;7.610;2023-07-31T06:24:47;5.68;;;2.22;;
77544;SDS011;66672;50.328;7.610;2023-07-31T06:27:13;5.22;;;2.40;;
77544;SDS011;66672;50.328;7.610;2023-07-31T06:29:38;6.22;;;2.70;;
77544;SDS011;66672;50.328;7.610;2023-07-31T06:32:03;7.03;;;2.10;;
77544;SDS011;66672;50.328;7.610;2023-07-31T06:34:28;7.38;;;2.25;;
77544;SDS011;66672;50.328;7.610;2023-07-31T06:36:53;7.57;;;2.50;;
77544;SDS011;66672;50.328;7.610;2023-07-31T06:39:19;7.05;;;2.20;;
77544;SDS011;66672;50.328;7.610;2023-07-31T06:41:45;5.82;;;2.50;;
77544;SDS011;66672;50.328;7.610;2023-07-31T06:44:10;8.88;;;2.55;;
77544;SDS011;66672;50.328;7.610;2023-07-31T06:46:35;8.18;;;2.70;;
77544;SDS011;66672;50.328;7.610;2023-07-31T06:49:01;6.78;;;2.53;;
77544;SDS011;66672;50.328;7.610;2023-07-31T06:51:26;6.72;;;3.25;;
77544;SDS011;66672;50.328;7.610;2023-07-31T06:53:51;6.07;;;2.33;;
77544;SDS011;66672;50.328;7.610;2023-07-31T06:56:16;8.43;;;2.63;;
77544;SDS011;66672;50.328;7.610;2023-07-31T06:58:42;9.07;;;2.70;;
77544;SDS011;66672;50.328;7.610;2023-07-31T07:01:07;6.93;;;2.67;;
77544;SDS011;66672;50.328;7.610;2023-07-31T07:03:32;7.80;;;2.53;;
77544;SDS011;66672;50.328;7.610;2023-07-31T07:05:57;6.95;;;2.28;;
77544;SDS011;66672;50.328;7.610;2023-07-31T07:08:23;5.60;;;2.55;;
77544;SDS011;66672;50.328;7.610;2023-07-31T07:10:48;9.75;;;2.75;;
77544;SDS011;66672;50.328;7.610;2023-07-31T07:13:14;6.50;;;2.38;;
77544;SDS011;66672;50.328;7.610;2023-07-31T07:15:39;6.68;;;3.03;;
77544;SDS011;66672;50.328;7.610;2023-07-31T07:18:04;6.82;;;3.05;;
77544;SDS011;66672;50.328;7.610;2023-07-31T07:20:29;6.55;;;2.25;;
77544;SDS011;66672;50.328;7.610;2023-07-31T07:22:54;5.80;;;2.13;;
77544;SDS011;66672;50.328;7.610;2023-07-31T07:25:20;7.30;;;2.30;;
77544;SDS011;66672;50.328;7.610;2023-07-31T07:27:45;7.00;;;2.30;;
77544;SDS011;66672;50.328;7.610;2023-07-31T07:30:10;6.47;;;2.65;;
77544;SDS011;66672;50.328;7.610;2023-07-31T07:32:35;6.78;;;2.28;;
77544;SDS011;66672;50.328;7.610;2023-07-31T07:35:01;7.90;;;2.88;;
77544;SDS011;66672;50.328;7.610;2023-07-31T07:37:26;8.65;;;2.65;;
77544;SDS011;66672;50.328;7.610;2023-07-31T07:39:51;6.32;;;2.60;;
77544;SDS011;66672;50.328;7.610;2023-07-31T07:42:16;5.80;;;2.17;;
77544;SDS011;66672;50.328;7.610;2023-07-31T07:44:41;8.50;;;2.47;;
77544;SDS011;66672;50.328;7.610;2023-07-31T07:47:06;5.05;;;1.90;;
77544;SDS011;66672;50.328;7.610;2023-07-31T07:49:32;7.65;;;2.60;;
77544;SDS011;66672;50.328;7.610;2023-07-31T07:51:58;6.50;;;2.58;;
77544;SDS011;66672;50.328;7.610;2023-07-31T07:54:23;7.50;;;2.53;;
77544;SDS011;66672;50.328;7.610;2023-07-31T07:56:48;10.05;;;3.17;;
77544;SDS011;66672;50.328;7.610;2023-07-31T07:59:14;7.97;;;2.72;;
77544;SDS011;66672;50.328;7.610;2023-07-31T08:01:39;8.18;;;2.55;;
77544;SDS011;66672;50.328;7.610;2023-07-31T08:04:04;7.22;;;2.55;;
77544;SDS011;66672;50.328;7.610;2023-07-31T08:06:30;6.47;;;2.53;;
77544;SDS011;66672;50.328;7.610;2023-07-31T08:08:55;7.85;;;2.78;;
77544;SDS011;66672;50.328;7.610;2023-07-31T08:11:20;6.32;;;2.70;;
77544;SDS011;66672;50.328;7.610;2023-07-31T08:13:47;9.73;;;2.83;;
77544;SDS011;66672;50.328;7.610;2023-07-31T08:16:12;8.82;;;2.80;;
77544;SDS011;66672;50.328;7.610;2023-07-31T08:18:37;5.93;;;2.53;;
77544;SDS011;66672;50.328;7.610;2023-07-31T08:21:02;5.97;;;2.60;;
77544;SDS011;66672;50.328;7.610;2023-07-31T08:23:28;7.15;;;2.83;;
77544;SDS011;66672;50.328;7.610;2023-07-31T08:25:53;7.55;;;3.00;;
77544;SDS011;66672;50.328;7.610;2023-07-31T08:28:18;6.18;;;2.65;;
77544;SDS011;66672;50.328;7.610;2023-07-31T08:30:43;6.07;;;2.40;;
77544;SDS011;66672;50.328;7.610;2023-07-31T08:33:08;7.70;;;2.63;;
77544;SDS011;66672;50.328;7.610;2023-07-31T08:35:34;5.55;;;2.63;;
77544;SDS011;66672;50.328;7.610;2023-07-31T08:37:59;6.35;;;2.80;;
77544;SDS011;66672;50.328;7.610;2023-07-31T08:40:24;5.90;;;2.35;;
77544;SDS011;66672;50.328;7.610;2023-07-31T08:42:51;6.30;;;2.70;;
77544;SDS011;66672;50.328;7.610;2023-07-31T08:45:17;7.18;;;2.50;;
77544;SDS011;66672;50.328;7.610;2023-07-31T08:47:46;7.10;;;2.38;;
77544;SDS011;66672;50.328;7.610;2023-07-31T08:50:12;8.40;;;3.17;;
77544;SDS011;66672;50.328;7.610;2023-07-31T08:52:37;7.35;;;2.95;;
77544;SDS011;66672;50.328;7.610;2023-07-31T08:55:03;6.68;;;2.90;;
77544;SDS011;66672;50.328;7.610;2023-07-31T08:57:28;8.57;;;3.15;;
77544;SDS011;66672;50.328;7.610;2023-07-31T08:59:53;7.95;;;2.70;;
77544;SDS011;66672;50.328;7.610;2023-07-31T09:02:19;7.68;;;2.78;;
77544;SDS011;66672;50.328;7.610;2023-07-31T09:04:45;7.32;;;2.88;;
77544;SDS011;66672;50.328;7.610;2023-07-31T09:07:10;6.55;;;2.65;;
77544;SDS011;66672;50.328;7.610;2023-07-31T09:09:38;7.80;;;2.70;;
77544;SDS011;66672;50.328;7.610;2023-07-31T09:12:03;5.35;;;2.15;;
77544;SDS011;66672;50.328;7.610;2023-07-31T09:14:29;8.57;;;2.17;;
77544;SDS011;66672;50.328;7.610;2023-07-31T09:16:57;6.30;;;2.60;;
77544;SDS011;66672;50.328;7.610;2023-07-31T09:19:34;6.68;;;2.40;;
77544;SDS011;66672;50.328;7.610;2023-07-31T09:22:01;6.63;;;2.58;;
77544;SDS011;66672;50.328;7.610;2023-07-31T09:24:31;5.82;;;2.40;;
77544;SDS011;66672;50.328;7.610;2023-07-31T09:26:56;6.25;;;2.10;;
77544;SDS011;66672;50.328;7.610;2023-07-31T09:29:22;5.68;;;2.40;;
77544;SDS011;66672;50.328;7.610;2023-07-31T09:31:48;6.90;;;2.38;;
77544;SDS011;66672;50.328;7.610;2023-07-31T09:34:13;7.65;;;2.22;;
77544;SDS011;66672;50.328;7.610;2023-07-31T09:36:42;6.75;;;2.58;;
77544;SDS011;66672;50.328;7.610;2023-07-31T09:39:11;5.53;;;2.50;;
77544;SDS011;66672;50.328;7.610;2023-07-31T09:41:37;5.68;;;2.40;;
77544;SDS011;66672;50.328;7.610;2023-07-31T09:44:03;4.85;;;2.15;;
77544;SDS011;66672;50.328;7.610;2023-07-31T09:46:28;5.43;;;2.30;;
77544;SDS011;66672;50.328;7.610;2023-07-31T09:49:02;7.93;;;2.25;;
77544;SDS011;66672;50.328;7.610;2023-07-31T09:51:27;5.10;;;2.17;;
77544;SDS011;66672;50.328;7.610;2023-07-31T09:53:53;5.93;;;2.58;;
77544;SDS011;66672;50.328;7.610;2023-07-31T09:56:18;7.10;;;2.58;;
77544;SDS011;66672;50.328;7.610;2023-07-31T09:58:45;7.10;;;2.28;;
77544;SDS011;66672;50.328;7.610;2023-07-31T10:01:10;6.68;;;2.50;;
77544;SDS011;66672;50.328;7.610;2023-07-31T10:03:35;6.97;;;1.90;;
77544;SDS011;66672;50.328;7.610;2023-07-31T10:06:02;6.30;;;2.25;;
77544;SDS011;66672;50.328;7.610;2023-07-31T10:08:28;3.65;;;1.63;;
77544;SDS011;66672;50.328;7.610;2023-07-31T10:10:54;8.18;;;2.35;;
77544;SDS011;66672;50.328;7.610;2023-07-31T10:13:23;6.30;;;2.40;;
77544;SDS011;66672;50.328;7.610;2023-07-31T10:15:48;5.78;;;2.70;;
77544;SDS011;66672;50.328;7.610;2023-07-31T10:18:13;6.57;;;2.20;;
77544;SDS011;66672;50.328;7.610;2023-07-31T10:20:39;5.05;;;2.53;;
77544;SDS011;66672;50.328;7.610;2023-07-31T10:23:05;6.82;;;2.70;;
77544;SDS011;66672;50.328;7.610;2023-07-31T10:25:31;5.32;;;2.20;;
77544;SDS011;66672;50.328;7.610;2023-07-31T10:27:57;8.43;;;1.90;;
77544;SDS011;66672;50.328;7.610;2023-07-31T10:30:23;5.18;;;2.30;;
77544;SDS011;66672;50.328;7.610;2023-07-31T10:32:50;6.85;;;2.20;;
77544;SDS011;66672;50.328;7.610;2023-07-31T10:35:16;4.72;;;1.90;;
77544;SDS011;66672;50.328;7.610;2023-07-31T10:37:42;5.25;;;1.95;;
77544;SDS011;66672;50.328;7.610;2023-07-31T10:40:11;8.07;;;2.00;;
77544;SDS011;66672;50.328;7.610;2023-07-31T10:42:59;6.65;;;2.30;;
77544;SDS011;66672;50.328;7.610;2023-07-31T10:45:24;4.47;;;1.90;;
77544;SDS011;66672;50.328;7.610;2023-07-31T10:50:30;5.95;;;2.10;;
77544;SDS011;66672;50.328;7.610;2023-07-31T10:52:57;5.15;;;2.00;;
77544;SDS011;66672;50.328;7.610;2023-07-31T10:57:51;5.95;;;2.05;;
77544;SDS011;66672;50.328;7.610;2023-07-31T11:00:20;7.25;;;1.90;;
77544;SDS011;66672;50.328;7.610;2023-07-31T11:03:05;6.05;;;2.30;;
77544;SDS011;66672;50.328;7.610;2023-07-31T11:08:12;5.90;;;1.83;;
77544;SDS011;66672;50.328;7.610;2023-07-31T11:10:38;6.40;;;2.17;;
77544;SDS011;66672;50.328;7.610;2023-07-31T11:13:06;5.43;;;1.80;;
77544;SDS011;66672;50.328;7.610;2023-07-31T11:15:31;4.47;;;2.10;;
77544;SDS011;66672;50.328;7.610;2023-07-31T11:17:56;5.22;;;2.25;;
77544;SDS011;66672;50.328;7.610;2023-07-31T11:20:24;4.50;;;1.60;;
77544;SDS011;66672;50.328;7.610;2023-07-31T11:22:50;4.57;;;2.20;;
77544;SDS011;66672;50.328;7.610;2023-07-31T11:25:15;4.22;;;1.75;;
77544;SDS011;66672;50.328;7.610;2023-07-31T11:27:41;5.70;;;1.90;;
77544;SDS011;66672;50.328;7.610;2023-07-31T11:30:07;5.00;;;1.98;;
77544;SDS011;66672;50.328;7.610;2023-07-31T11:32:32;6.35;;;1.95;;
77544;SDS011;66672;50.328;7.610;2023-07-31T11:34:57;4.03;;;1.90;;
77544;SDS011;66672;50.328;7.610;2023-07-31T11:37:23;5.55;;;1.63;;
77544;SDS011;66672;50.328;7.610;2023-07-31T11:40:00;4.35;;;1.80;;
77544;SDS011;66672;50.328;7.610;2023-07-31T11:42:26;7.43;;;2.20;;
77544;SDS011;66672;50.328;7.610;2023-07-31T11:44:51;5.13;;;1.67;;
77544;SDS011;66672;50.328;7.610;2023-07-31T11:47:16;5.40;;;1.55;;
77544;SDS011;66672;50.328;7.610;2023-07-31T11:49:42;3.85;;;1.67;;
77544;SDS011;66672;50.328;7.610;2023-07-31T11:52:08;4.88;;;1.73;;
77544;SDS011;66672;50.328;7.610;2023-07-31T11:54:33;4.75;;;1.60;;
77544;SDS011;66672;50.328;7.610;2023-07-31T11:56:58;4.78;;;1.58;;
77544;SDS011;66672;50.328;7.610;2023-07-31T11:59:26;4.90;;;1.42;;
77544;SDS011;66672;50.328;7.610;2023-07-31T12:01:51;3.17;;;1.40;;
77544;SDS011;66672;50.328;7.610;2023-07-31T12:04:18;2.67;;;1.33;;
77544;SDS011;66672;50.328;7.610;2023-07-31T12:06:44;4.30;;;1.33;;
77544;SDS011;66672;50.328;7.610;2023-07-31T12:09:09;4.15;;;1.70;;
77544;SDS011;66672;50.328;7.610;2023-07-31T12:11:44;3.55;;;1.42;;
77544;SDS011;66672;50.328;7.610;2023-07-31T12:14:23;3.92;;;1.70;;
77544;SDS011;66672;50.328;7.610;2023-07-31T12:16:52;5.13;;;1.38;;
77544;SDS011;66672;50.328;7.610;2023-07-31T12:19:18;4.53;;;1.42;;
77544;SDS011;66672;50.328;7.610;2023-07-31T12:21:44;4.18;;;1.85;;
77544;SDS011;66672;50.328;7.610;2023-07-31T12:24:09;4.70;;;1.92;;
77544;SDS011;66672;50.328;7.610;2023-07-31T12:26:34;4.00;;;1.48;;
77544;SDS011;66672;50.328;7.610;2023-07-31T12:29:00;4.80;;;1.95;;
77544;SDS011;66672;50.328;7.610;2023-07-31T12:31:25;4.78;;;1.50;;
77544;SDS011;66672;50.328;7.610;2023-07-31T12:33:52;5.00;;;1.30;;
77544;SDS011;66672;50.328;7.610;2023-07-31T12:36:19;5.57;;;1.80;;
77544;SDS011;66672;50.328;7.610;2023-07-31T12:38:45;5.10;;;1.95;;
77544;SDS011;66672;50.328;7.610;2023-07-31T12:41:10;3.90;;;1.50;;
77544;SDS011;66672;50.328;7.610;2023-07-31T12:43:36;3.60;;;1.75;;
77544;SDS011;66672;50.328;7.610;2023-07-31T12:46:02;3.53;;;1.67;;
77544;SDS011;66672;50.328;7.610;2023-07-31T12:48:27;3.25;;;1.50;;
77544;SDS011;66672;50.328;7.610;2023-07-31T12:50:52;3.65;;;1.75;;
77544;SDS011;66672;50.328;7.610;2023-07-31T12:53:18;3.03;;;1.58;;
77544;SDS011;66672;50.328;7.610;2023-07-31T12:55:43;3.80;;;1.67;;
77544;SDS011;66672;50.328;7.610;2023-07-31T12:58:08;5.10;;;1.45;;
77544;SDS011;66672;50.328;7.610;2023-07-31T13:00:34;4.57;;;1.37;;
77544;SDS011;66672;50.328;7.610;2023-07-31T13:02:59;4.53;;;1.95;;
77544;SDS011;66672;50.328;7.610;2023-07-31T13:05:25;3.97;;;1.27;;
77544;SDS011;66672;50.328;7.610;2023-07-31T13:07:50;3.20;;;1.30;;
77544;SDS011;66672;50.328;7.610;2023-07-31T13:10:15;4.30;;;1.60;;
77544;SDS011;66672;50.328;7.610;2023-07-31T13:12:40;4.07;;;2.03;;
77544;SDS011;66672;50.328;7.610;2023-07-31T13:15:06;5.35;;;1.77;;
77544;SDS011;66672;50.328;7.610;2023-07-31T13:17:31;4.05;;;1.52;;
77544;SDS011;66672;50.328;7.610;2023-07-31T13:19:57;3.58;;;1.50;;
77544;SDS011;66672;50.328;7.610;2023-07-31T13:22:22;6.55;;;1.60;;
77544;SDS011;66672;50.328;7.610;2023-07-31T13:24:47;3.45;;;1.40;;
77544;SDS011;66672;50.328;7.610;2023-07-31T13:27:13;5.72;;;1.67;;
77544;SDS011;66672;50.328;7.610;2023-07-31T13:29:38;3.63;;;1.58;;
77544;SDS011;66672;50.328;7.610;2023-07-31T13:32:03;2.97;;;1.40;;
77544;SDS011;66672;50.328;7.610;2023-07-31T13:34:28;5.05;;;1.73;;
77544;SDS011;66672;50.328;7.610;2023-07-31T13:36:54;3.67;;;1.02;;
77544;SDS011;66672;50.328;7.610;2023-07-31T13:39:20;4.60;;;2.00;;
77544;SDS011;66672;50.328;7.610;2023-07-31T13:41:45;3.95;;;1.42;;
77544;SDS011;66672;50.328;7.610;2023-07-31T13:44:10;4.93;;;1.57;;
77544;SDS011;66672;50.328;7.610;2023-07-31T13:46:35;3.67;;;1.43;;
77544;SDS011;66672;50.328;7.610;2023-07-31T13:49:00;3.80;;;1.40;;
77544;SDS011;66672;50.328;7.610;2023-07-31T13:51:26;4.72;;;1.50;;
77544;SDS011;66672;50.328;7.610;2023-07-31T13:53:52;4.50;;;1.35;;
77544;SDS011;66672;50.328;7.610;2023-07-31T13:56:17;4.70;;;1.37;;
77544;SDS011;66672;50.328;7.610;2023-07-31T13:58:43;6.38;;;0.98;;
77544;SDS011;66672;50.328;7.610;2023-07-31T14:01:08;3.78;;;1.15;;
77544;SDS011;66672;50.328;7.610;2023-07-31T14:03:34;4.45;;;1.23;;
77544;SDS011;66672;50.328;7.610;2023-07-31T14:05:59;3.25;;;1.30;;
77544;SDS011;66672;50.328;7.610;2023-07-31T14:08:24;4.75;;;1.45;;
77544;SDS011;66672;50.328;7.610;2023-07-31T14:10:49;4.05;;;1.20;;
77544;SDS011;66672;50.328;7.610;2023-07-31T14:13:14;4.20;;;1.10;;
77544;SDS011;66672;50.328;7.610;2023-07-31T14:15:41;2.80;;;1.20;;
77544;SDS011;66672;50.328;7.610;2023-07-31T14:18:07;3.67;;;1.35;;
77544;SDS011;66672;50.328;7.610;2023-07-31T14:20:32;3.63;;;1.20;;
77544;SDS011;66672;50.328;7.610;2023-07-31T14:22:57;3.35;;;1.55;;
77544;SDS011;66672;50.328;7.610;2023-07-31T14:25:22;4.47;;;1.45;;
77544;SDS011;66672;50.328;7.610;2023-07-31T14:27:48;4.53;;;1.50;;
77544;SDS011;66672;50.328;7.610;2023-07-31T14:30:13;2.83;;;1.25;;
77544;SDS011;66672;50.328;7.610;2023-07-31T14:32:38;3.35;;;1.20;;
77544;SDS011;66672;50.328;7.610;2023-07-31T14:35:03;3.35;;;1.30;;
77544;SDS011;66672;50.328;7.610;2023-07-31T14:37:36;3.70;;;1.55;;
77544;SDS011;66672;50.328;7.610;2023-07-31T14:40:01;3.67;;;1.35;;
77544;SDS011;66672;50.328;7.610;2023-07-31T14:42:26;4.28;;;1.20;;
77544;SDS011;66672;50.328;7.610;2023-07-31T14:44:51;4.27;;;1.40;;
77544;SDS011;66672;50.328;7.610;2023-07-31T14:47:17;2.92;;;1.00;;
77544;SDS011;66672;50.328;7.610;2023-07-31T14:49:42;3.50;;;1.30;;